Terminal Aerodrome Forecast
Issued by NWS Los Angeles, CA

Home | Current Version | Previous Version | Text Only | Print | Product List | Glossary On
Versions: 1 2 3 4 5 6 7 8 9 10 11 12 13 14 15 16 17 18 19
000
FTUS46 KLOX 220900 AAA
TAFSMX
TAF AMD
KSMX 220919Z 2209/2306 VRB03KT P6SM BKN150
     FM221100 VRB03KT 6SM BR OVC007
     FM221730 30008KT P6SM SCT010 SCT150 SCT250
     FM222000 30014G20KT P6SM FEW150 SCT250
     FM230200 31008KT P6SM FEW150 SCT250=

USA.gov is the U.S. government's official web portal to all federal, state and local government web resources and services.